Time;durP1;ratioP1;P1;durP2;ratioP2;P2;SDS_P1;SDS_P2;PMS_P1;PMS_P2;Temp;Humidity;BMP_temperature;BMP_pressure;BME280_temperature;BME280_humidity;BME280_pressure;Samples;Min_cycle;Max_cycle;Signal;HPM_P1;HPM_P2
2023/07/13 00:01:49;;;;;;;3.65;2.22;;;19.60;99.90;;;;;;5109157;28;20031;-71
2023/07/13 00:04:17;;;;;;;3.40;1.88;;;19.50;99.90;;;;;;5109779;27;20027;-71
2023/07/13 00:06:44;;;;;;;3.33;1.90;;;19.50;99.90;;;;;;5109523;28;20035;-71
2023/07/13 00:09:13;;;;;;;4.75;1.83;;;19.40;99.90;;;;;;5107269;28;20031;-73
2023/07/13 00:11:38;;;;;;;7.43;2.50;;;19.50;99.90;;;;;;5109285;28;20108;-72
2023/07/13 00:14:05;;;;;;;4.68;2.03;;;19.50;99.90;;;;;;5108015;28;20677;-71
2023/07/13 00:16:31;;;;;;;4.72;2.15;;;19.50;99.90;;;;;;5108544;28;20462;-72
2023/07/13 00:18:56;;;;;;;3.97;2.10;;;19.50;99.90;;;;;;5107674;28;20038;-71
2023/07/13 00:21:22;;;;;;;4.78;2.20;;;19.40;99.90;;;;;;5125489;27;20030;-73
2023/07/13 00:23:48;;;;;;;8.20;2.28;;;19.30;99.90;;;;;;5098939;28;20081;-70
2023/07/13 00:26:14;;;;;;;3.70;2.22;;;19.20;99.90;;;;;;5104431;28;20062;-71
2023/07/13 00:28:41;;;;;;;3.80;2.20;;;19.20;99.90;;;;;;5099945;28;20062;-72
2023/07/13 00:31:08;;;;;;;5.60;2.38;;;19.10;99.90;;;;;;5097034;28;20019;-73
2023/07/13 00:33:33;;;;;;;5.38;2.22;;;19.10;99.90;;;;;;5102020;28;20089;-73
2023/07/13 00:35:59;;;;;;;3.45;2.20;;;19.00;99.90;;;;;;5094352;28;20020;-72
2023/07/13 00:38:25;;;;;;;5.82;2.00;;;18.90;99.90;;;;;;5109055;28;20028;-72
2023/07/13 00:40:50;;;;;;;3.70;2.10;;;18.90;99.90;;;;;;5106954;28;20077;-72
2023/07/13 00:43:19;;;;;;;6.32;2.10;;;18.90;99.90;;;;;;5106870;28;20072;-73
2023/07/13 00:45:45;;;;;;;6.32;1.90;;;18.80;99.90;;;;;;5111845;28;20031;-73
2023/07/13 00:48:24;;;;;;;7.30;2.17;;;18.80;99.90;;;;;;5113656;28;20396;-73
2023/07/13 00:50:55;;;;;;;7.30;2.67;;;18.80;99.90;;;;;;5107356;28;20384;-70
2023/07/13 00:53:21;;;;;;;6.57;1.95;;;18.70;99.90;;;;;;5106756;28;20027;-73
2023/07/13 00:55:53;;;;;;;8.10;2.25;;;18.70;99.90;;;;;;5089524;28;20042;-70
2023/07/13 00:58:19;;;;;;;5.07;2.17;;;18.70;99.90;;;;;;5106348;28;20028;-72
2023/07/13 01:00:47;;;;;;;6.88;2.40;;;18.60;99.90;;;;;;5107389;28;20524;-73
2023/07/13 01:03:13;;;;;;;5.78;2.20;;;18.60;99.90;;;;;;5106709;28;20115;-71
2023/07/13 01:05:39;;;;;;;5.20;2.10;;;18.50;99.90;;;;;;5107424;28;20439;-73
2023/07/13 01:08:05;;;;;;;4.97;2.10;;;18.40;99.90;;;;;;5106578;28;20594;-72
2023/07/13 01:10:38;;;;;;;4.20;2.10;;;18.30;99.90;;;;;;5104537;28;20461;-72
2023/07/13 01:13:05;;;;;;;4.47;2.00;;;18.30;99.90;;;;;;5095275;28;20023;-71
2023/07/13 01:15:45;;;;;;;5.20;2.40;;;18.30;99.90;;;;;;5108047;28;20039;-73
2023/07/13 01:18:21;;;;;;;6.00;2.17;;;18.30;99.90;;;;;;5088810;28;20697;-72
2023/07/13 01:21:05;;;;;;;5.72;2.20;;;18.30;99.90;;;;;;5105392;28;20032;-72
2023/07/13 01:23:31;;;;;;;4.22;1.70;;;18.30;99.90;;;;;;5106633;28;20031;-70
2023/07/13 01:25:59;;;;;;;4.90;1.58;;;18.30;99.90;;;;;;5109987;28;20031;-73
2023/07/13 01:28:26;;;;;;;5.43;1.73;;;18.20;99.90;;;;;;5122589;27;20480;-72
2023/07/13 01:30:53;;;;;;;8.27;2.17;;;18.20;99.90;;;;;;5110496;27;20840;-69
2023/07/13 01:33:19;;;;;;;4.15;1.75;;;18.10;99.90;;;;;;5103338;28;20036;-73
2023/07/13 01:35:46;;;;;;;6.75;1.75;;;18.10;99.90;;;;;;5112121;28;20032;-74
2023/07/13 01:38:17;;;;;;;5.90;1.55;;;18.10;99.90;;;;;;5110704;28;20590;-73
2023/07/13 01:40:44;;;;;;;6.38;1.80;;;18.00;99.90;;;;;;5111453;28;20092;-73
2023/07/13 01:43:10;;;;;;;12.63;2.10;;;18.10;99.90;;;;;;5111455;28;20020;-72
2023/07/13 01:45:36;;;;;;;11.85;1.92;;;18.10;99.90;;;;;;5103000;28;20411;-73
2023/07/13 01:48:01;;;;;;;5.53;1.75;;;18.10;99.90;;;;;;5105328;27;20043;-73
2023/07/13 01:50:27;;;;;;;6.13;2.00;;;18.00;99.90;;;;;;5093397;28;20046;-70
2023/07/13 01:52:53;;;;;;;3.17;1.80;;;18.00;99.90;;;;;;5109362;28;20115;-72
2023/07/13 01:55:20;;;;;;;6.80;1.67;;;18.00;99.90;;;;;;5117080;27;20394;-71
2023/07/13 01:57:46;;;;;;;6.47;1.70;;;18.00;99.90;;;;;;5132411;27;20054;-73
2023/07/13 02:00:13;;;;;;;5.05;1.70;;;18.00;99.90;;;;;;5112691;27;20278;-72
2023/07/13 02:02:39;;;;;;;9.57;2.25;;;18.00;99.90;;;;;;5132340;27;20065;-71
2023/07/13 02:05:05;;;;;;;7.45;2.00;;;18.00;99.90;;;;;;5130364;27;20484;-71
2023/07/13 02:07:31;;;;;;;6.28;2.00;;;17.90;99.90;;;;;;5127849;27;20711;-72
2023/07/13 02:09:57;;;;;;;4.90;1.70;;;18.00;99.90;;;;;;5114744;27;20113;-71
2023/07/13 02:12:23;;;;;;;3.85;1.70;;;18.00;99.90;;;;;;5127687;27;20042;-72
2023/07/13 02:14:48;;;;;;;4.25;1.80;;;18.10;99.90;;;;;;5131013;27;20058;-72
2023/07/13 02:17:14;;;;;;;7.88;1.75;;;18.10;99.90;;;;;;5109167;28;20077;-70
2023/07/13 02:19:40;;;;;;;13.30;1.83;;;18.10;99.90;;;;;;5111419;28;20089;-72
2023/07/13 02:22:09;;;;;;;4.57;1.90;;;18.20;99.90;;;;;;5110383;27;20102;-72
2023/07/13 02:24:34;;;;;;;4.72;1.90;;;18.20;99.90;;;;;;5095256;28;20124;-72
2023/07/13 02:27:00;;;;;;;3.47;2.10;;;18.10;99.90;;;;;;5109311;28;20464;-72
2023/07/13 02:29:25;;;;;;;6.45;2.38;;;18.00;99.90;;;;;;5110607;28;20035;-72
2023/07/13 02:31:51;;;;;;;8.52;2.05;;;17.90;99.90;;;;;;5110630;28;20520;-71
2023/07/13 02:34:17;;;;;;;6.75;2.17;;;17.80;99.90;;;;;;5109028;28;20036;-73
2023/07/13 02:36:43;;;;;;;10.52;1.73;;;17.70;99.90;;;;;;5109020;28;20468;-71
2023/07/13 02:39:11;;;;;;;5.03;2.17;;;17.60;99.90;;;;;;5110741;27;20468;-72
2023/07/13 02:41:36;;;;;;;8.25;2.13;;;17.50;99.90;;;;;;5111241;28;20365;-72
2023/07/13 02:44:03;;;;;;;8.27;2.00;;;17.50;99.90;;;;;;5089665;28;20034;-73
2023/07/13 02:46:30;;;;;;;6.45;2.05;;;17.50;99.90;;;;;;5104503;28;20052;-71
2023/07/13 02:48:56;;;;;;;7.60;2.58;;;17.50;99.90;;;;;;5109661;28;20043;-72
2023/07/13 02:51:21;;;;;;;7.10;2.55;;;17.40;99.90;;;;;;5110911;28;20020;-73
2023/07/13 02:53:47;;;;;;;4.13;1.98;;;17.40;99.90;;;;;;5108448;28;20386;-71
2023/07/13 02:56:13;;;;;;;7.30;2.38;;;17.30;99.90;;;;;;5109481;27;20350;-72
2023/07/13 02:58:38;;;;;;;5.82;2.22;;;17.30;99.90;;;;;;5119716;27;20027;-71
2023/07/13 03:01:09;;;;;;;5.15;1.85;;;17.20;99.90;;;;;;5120469;27;20106;-71
2023/07/13 03:03:36;;;;;;;7.10;2.20;;;17.30;99.90;;;;;;5092312;28;20043;-72
2023/07/13 03:06:04;;;;;;;4.60;1.95;;;17.30;99.90;;;;;;5109047;28;20099;-73
2023/07/13 03:08:30;;;;;;;4.30;1.85;;;17.30;99.90;;;;;;5110745;28;20027;-71
2023/07/13 03:11:01;;;;;;;5.35;1.95;;;17.30;99.90;;;;;;5091676;28;20030;-71
2023/07/13 03:13:26;;;;;;;4.13;2.10;;;17.30;99.90;;;;;;5109110;27;20111;-72
2023/07/13 03:15:52;;;;;;;5.03;2.20;;;17.30;99.90;;;;;;5101217;27;20135;-73
2023/07/13 03:18:18;;;;;;;7.07;2.28;;;17.30;99.90;;;;;;5097934;28;20793;-72
2023/07/13 03:20:43;;;;;;;7.20;2.15;;;17.30;99.90;;;;;;5105612;28;20032;-70
2023/07/13 03:23:09;;;;;;;3.80;2.08;;;17.30;99.90;;;;;;5104520;28;20031;-71
2023/07/13 03:25:35;;;;;;;5.75;2.45;;;17.40;99.90;;;;;;5106597;28;20472;-70
2023/07/13 03:28:00;;;;;;;8.13;2.33;;;17.30;99.90;;;;;;5104938;28;20089;-69
2023/07/13 03:30:26;;;;;;;10.68;1.98;;;17.20;99.90;;;;;;5099235;28;20081;-71
2023/07/13 03:32:51;;;;;;;5.53;2.05;;;17.10;99.90;;;;;;5111330;27;20081;-71
2023/07/13 03:35:17;;;;;;;5.80;2.20;;;16.90;99.90;;;;;;5111331;27;20215;-70
2023/07/13 03:37:43;;;;;;;8.00;2.10;;;16.80;99.90;;;;;;5089464;28;20487;-70
2023/07/13 03:40:10;;;;;;;8.80;2.17;;;16.80;99.90;;;;;;5098623;28;20028;-70
2023/07/13 03:42:36;;;;;;;6.35;2.30;;;16.70;99.90;;;;;;5096505;28;20032;-70
2023/07/13 03:45:01;;;;;;;5.22;2.17;;;16.60;99.90;;;;;;5094604;28;20069;-70
2023/07/13 03:47:27;;;;;;;5.57;2.10;;;16.50;99.90;;;;;;5103960;28;20105;-71
2023/07/13 03:49:53;;;;;;;3.45;1.80;;;16.40;99.90;;;;;;5109474;28;20431;-70
2023/07/13 03:52:19;;;;;;;4.55;2.35;;;16.50;99.90;;;;;;5106916;28;20028;-70
2023/07/13 03:54:44;;;;;;;4.28;2.15;;;16.60;99.90;;;;;;5111381;27;20446;-71
2023/07/13 03:57:10;;;;;;;7.35;2.35;;;16.60;99.90;;;;;;5095563;27;20114;-70
2023/07/13 03:59:36;;;;;;;6.78;2.38;;;16.70;99.90;;;;;;5106633;27;20031;-71
2023/07/13 04:02:04;;;;;;;9.73;2.05;;;16.70;99.90;;;;;;5107104;27;20035;-70
2023/07/13 04:04:30;;;;;;;8.20;2.83;;;16.70;99.90;;;;;;5110123;27;20032;-71
2023/07/13 04:06:58;;;;;;;6.28;2.10;;;16.60;99.90;;;;;;5108262;28;20089;-71
2023/07/13 04:09:24;;;;;;;4.72;2.22;;;16.50;99.90;;;;;;5101409;28;20066;-71
2023/07/13 04:11:50;;;;;;;6.93;2.58;;;16.50;99.90;;;;;;5104696;28;20035;-71
2023/07/13 04:14:16;;;;;;;7.03;2.42;;;16.50;99.90;;;;;;5099118;28;20027;-71
2023/07/13 04:16:42;;;;;;;4.88;2.15;;;16.50;99.90;;;;;;5103385;28;20027;-71
2023/07/13 04:19:10;;;;;;;6.70;2.35;;;16.50;99.90;;;;;;5104615;28;20042;-71
2023/07/13 04:21:36;;;;;;;6.07;2.58;;;16.50;99.90;;;;;;5110428;27;20077;-69
2023/07/13 04:24:03;;;;;;;5.97;2.25;;;16.50;99.90;;;;;;5107957;28;20110;-68
2023/07/13 04:26:29;;;;;;;7.95;2.58;;;16.50;99.90;;;;;;5106392;28;20384;-71
2023/07/13 04:28:56;;;;;;;4.00;2.33;;;16.50;99.90;;;;;;5108490;28;20127;-72
2023/07/13 04:31:22;;;;;;;5.18;2.47;;;16.40;99.90;;;;;;5106844;28;20023;-69
2023/07/13 04:33:48;;;;;;;4.55;2.40;;;16.50;99.90;;;;;;5097089;28;20027;-76
2023/07/13 04:36:15;;;;;;;6.70;2.35;;;16.50;99.90;;;;;;5090068;28;20032;-72
2023/07/13 04:38:41;;;;;;;6.30;2.45;;;16.70;99.90;;;;;;5094835;28;20019;-71
2023/07/13 04:41:08;;;;;;;4.90;2.20;;;16.80;99.90;;;;;;5106160;28;20081;-72
2023/07/13 04:43:34;;;;;;;7.50;2.45;;;16.80;99.90;;;;;;5103616;28;20036;-70
2023/07/13 04:46:12;;;;;;;9.15;2.40;;;16.90;99.90;;;;;;5103417;28;20494;-68
2023/07/13 04:48:38;;;;;;;7.57;2.70;;;16.90;99.90;;;;;;5101164;28;20055;-70
2023/07/13 04:51:04;;;;;;;5.90;2.20;;;16.90;99.90;;;;;;5105399;28;20705;-67
2023/07/13 04:53:30;;;;;;;5.32;2.22;;;16.90;99.90;;;;;;5097688;28;20028;-71
2023/07/13 04:55:57;;;;;;;6.25;2.72;;;16.90;99.90;;;;;;5107587;28;20028;-71
2023/07/13 04:58:23;;;;;;;7.45;2.88;;;16.80;99.90;;;;;;5108018;28;20211;-69
2023/07/13 05:00:49;;;;;;;5.82;2.30;;;16.70;99.90;;;;;;5108605;28;20450;-70
2023/07/13 05:03:15;;;;;;;6.38;2.60;;;16.70;99.90;;;;;;5081235;28;20419;-68
2023/07/13 05:05:40;;;;;;;7.55;2.70;;;16.70;99.90;;;;;;5093668;28;20028;-70
2023/07/13 05:08:07;;;;;;;5.47;2.17;;;16.80;99.90;;;;;;5099534;28;20528;-67
2023/07/13 05:10:33;;;;;;;6.18;2.47;;;16.90;99.90;;;;;;5112533;28;20032;-71
2023/07/13 05:12:58;;;;;;;7.07;2.50;;;16.90;99.90;;;;;;5110113;28;20092;-72
2023/07/13 05:15:25;;;;;;;8.68;2.40;;;17.00;99.90;;;;;;5111946;28;20608;-68
2023/07/13 05:17:51;;;;;;;13.52;2.42;;;17.00;99.90;;;;;;5112780;28;20028;-70
2023/07/13 05:20:17;;;;;;;5.70;2.47;;;17.00;99.90;;;;;;5106912;28;20024;-69
2023/07/13 05:22:50;;;;;;;4.50;2.80;;;16.90;99.90;;;;;;5097570;28;20031;-72
2023/07/13 05:25:16;;;;;;;4.75;2.53;;;16.90;99.90;;;;;;5110873;28;20096;-69
2023/07/13 05:27:41;;;;;;;8.50;2.65;;;16.90;99.90;;;;;;5112368;28;20036;-71
2023/07/13 05:30:10;;;;;;;6.97;2.65;;;16.90;99.90;;;;;;5110709;28;20115;-71
2023/07/13 05:32:40;;;;;;;5.22;2.50;;;16.90;99.90;;;;;;5110608;28;20118;-69
2023/07/13 05:35:06;;;;;;;5.90;2.20;;;16.90;99.90;;;;;;5108702;28;20036;-64
2023/07/13 05:37:32;;;;;;;5.15;2.22;;;16.90;99.90;;;;;;5092004;28;20551;-70
2023/07/13 05:39:58;;;;;;;3.70;2.10;;;16.90;99.90;;;;;;5098794;28;20084;-70
2023/07/13 05:42:24;;;;;;;8.68;2.42;;;17.00;99.90;;;;;;5107842;28;20020;-70
2023/07/13 05:44:49;;;;;;;4.22;2.28;;;17.00;99.90;;;;;;5111357;28;20387;-73
2023/07/13 05:47:15;;;;;;;5.68;2.65;;;17.00;99.90;;;;;;5104025;27;20056;-69
2023/07/13 05:49:41;;;;;;;8.63;2.55;;;17.10;99.90;;;;;;5106980;28;20039;-72
2023/07/13 05:52:07;;;;;;;4.45;2.35;;;17.20;99.90;;;;;;5093483;28;20024;-70
2023/07/13 05:54:32;;;;;;;7.60;2.42;;;17.30;99.90;;;;;;5098124;27;20757;-72
2023/07/13 05:56:58;;;;;;;12.65;2.50;;;17.30;99.90;;;;;;5108430;28;20031;-70
2023/07/13 05:59:25;;;;;;;4.68;2.55;;;17.30;99.90;;;;;;5110770;28;20069;-73
2023/07/13 06:01:52;;;;;;;5.13;2.50;;;17.30;99.90;;;;;;5112105;28;20028;-69
2023/07/13 06:04:18;;;;;;;5.68;2.40;;;17.30;99.90;;;;;;5106522;28;20044;-72
2023/07/13 06:06:43;;;;;;;6.90;2.50;;;17.30;99.90;;;;;;5101992;28;20077;-68
2023/07/13 06:09:09;;;;;;;5.25;2.42;;;17.40;99.90;;;;;;5097951;28;20065;-68
2023/07/13 06:11:35;;;;;;;6.80;2.42;;;17.40;99.90;;;;;;5109866;28;20027;-71
2023/07/13 06:14:00;;;;;;;7.68;2.25;;;17.40;99.90;;;;;;5106188;28;20028;-68
2023/07/13 06:16:26;;;;;;;3.75;2.38;;;17.40;99.90;;;;;;5108877;28;20059;-72
2023/07/13 06:18:52;;;;;;;6.28;2.70;;;17.50;99.90;;;;;;5105709;28;20657;-70
2023/07/13 06:21:21;;;;;;;8.10;2.55;;;17.60;99.90;;;;;;5104081;28;20361;-69
2023/07/13 06:23:48;;;;;;;6.72;2.33;;;17.60;99.90;;;;;;5111179;28;20483;-72
2023/07/13 06:26:14;;;;;;;8.77;2.53;;;17.70;99.90;;;;;;5095957;28;20023;-71
2023/07/13 06:28:40;;;;;;;6.43;2.50;;;17.70;99.90;;;;;;5097809;28;20031;-71
2023/07/13 06:31:08;;;;;;;9.63;2.92;;;17.80;99.90;;;;;;5108892;28;20020;-71
2023/07/13 06:33:34;;;;;;;7.30;3.00;;;17.70;99.90;;;;;;5106008;28;20032;-71
2023/07/13 06:36:01;;;;;;;5.57;2.97;;;17.70;99.90;;;;;;5091800;28;20016;-70
2023/07/13 06:38:26;;;;;;;7.57;2.90;;;17.70;99.90;;;;;;5100444;28;20090;-67
2023/07/13 06:40:52;;;;;;;4.68;2.47;;;17.80;99.90;;;;;;5091522;28;20048;-69
2023/07/13 06:43:19;;;;;;;7.10;2.78;;;17.80;99.90;;;;;;5093379;28;20063;-71
2023/07/13 06:45:48;;;;;;;9.20;3.00;;;17.80;99.90;;;;;;5110309;28;20122;-70
2023/07/13 06:48:18;;;;;;;5.75;3.33;;;18.00;99.90;;;;;;5108788;28;20048;-69
2023/07/13 06:50:44;;;;;;;4.85;2.70;;;18.00;99.90;;;;;;5102865;28;20122;-70
2023/07/13 06:53:11;;;;;;;4.60;2.58;;;18.10;99.90;;;;;;5106171;28;20022;-67
2023/07/13 06:55:37;;;;;;;6.80;3.03;;;18.10;99.90;;;;;;5109061;28;20165;-71
2023/07/13 06:58:03;;;;;;;5.15;2.85;;;18.20;99.90;;;;;;5107141;28;20119;-71
2023/07/13 07:00:29;;;;;;;7.55;2.78;;;18.50;99.90;;;;;;5089111;28;20032;-70
2023/07/13 07:02:54;;;;;;;5.57;2.92;;;18.70;99.90;;;;;;5098937;28;20099;-69
2023/07/13 07:05:21;;;;;;;7.13;2.75;;;18.90;99.90;;;;;;5101182;28;20113;-70
2023/07/13 07:07:51;;;;;;;5.40;2.83;;;19.10;99.90;;;;;;5097116;28;20027;-70
2023/07/13 07:10:17;;;;;;;4.40;2.70;;;19.30;99.90;;;;;;5108603;28;20387;-71
2023/07/13 07:12:43;;;;;;;7.97;2.70;;;19.30;99.90;;;;;;5101154;28;20024;-70
2023/07/13 07:15:09;;;;;;;6.00;2.90;;;19.30;99.90;;;;;;5093844;28;20558;-70
2023/07/13 07:17:34;;;;;;;5.03;2.70;;;19.20;99.90;;;;;;5092465;28;20035;-70
2023/07/13 07:20:00;;;;;;;4.53;2.88;;;19.10;99.90;;;;;;5107333;28;20472;-71
2023/07/13 07:22:27;;;;;;;6.82;2.80;;;19.00;99.90;;;;;;5105532;28;20383;-70
2023/07/13 07:24:53;;;;;;;7.63;2.80;;;18.90;99.90;;;;;;5102398;27;20544;-72
2023/07/13 07:27:19;;;;;;;6.45;2.80;;;18.80;99.90;;;;;;5106334;28;20035;-70
2023/07/13 07:29:45;;;;;;;4.78;2.50;;;18.70;99.90;;;;;;5100365;28;21307;-70
2023/07/13 07:32:10;;;;;;;6.40;2.70;;;18.70;99.90;;;;;;5106145;28;20028;-69
2023/07/13 07:34:36;;;;;;;4.85;2.50;;;18.80;99.90;;;;;;5101830;28;20480;-69
2023/07/13 07:37:02;;;;;;;5.95;3.08;;;19.00;99.90;;;;;;5105283;28;20036;-70
2023/07/13 07:39:28;;;;;;;13.38;2.60;;;19.20;99.90;;;;;;5094740;28;20038;-68
2023/07/13 07:41:55;;;;;;;8.77;2.70;;;19.30;99.90;;;;;;5103241;28;20098;-68
2023/07/13 07:44:20;;;;;;;7.05;2.60;;;19.20;99.90;;;;;;5092419;28;20028;-69
2023/07/13 07:46:46;;;;;;;15.00;2.88;;;19.40;99.90;;;;;;5104855;28;20043;-70
2023/07/13 07:49:12;;;;;;;4.72;2.40;;;19.50;99.90;;;;;;5107802;28;20059;-68
2023/07/13 07:51:38;;;;;;;5.30;2.53;;;19.70;99.90;;;;;;5093020;28;20036;-67
2023/07/13 07:54:04;;;;;;;6.80;2.72;;;19.80;99.90;;;;;;5107018;28;20024;-69
2023/07/13 07:56:31;;;;;;;5.88;2.20;;;19.90;99.90;;;;;;5092701;28;20032;-70
2023/07/13 07:58:56;;;;;;;8.75;2.20;;;20.00;99.90;;;;;;5107994;28;20023;-69
2023/07/13 08:01:22;;;;;;;8.20;2.45;;;20.10;99.90;;;;;;5099233;28;20149;-67
2023/07/13 08:03:48;;;;;;;5.90;2.28;;;20.30;99.90;;;;;;5100709;28;20028;-70
2023/07/13 08:06:14;;;;;;;8.35;2.63;;;20.30;99.90;;;;;;5105740;28;20032;-69
2023/07/13 08:08:42;;;;;;;12.40;2.20;;;20.60;99.90;;;;;;5108094;28;20036;-69
2023/07/13 08:11:09;;;;;;;4.40;2.40;;;20.60;99.90;;;;;;5096476;28;20032;-69
2023/07/13 08:13:37;;;;;;;5.32;2.22;;;20.60;99.90;;;;;;5096782;28;20032;-69
2023/07/13 08:16:05;;;;;;;6.40;2.13;;;20.90;99.90;;;;;;5104872;28;20038;-68
2023/07/13 08:18:31;;;;;;;5.38;2.25;;;21.00;99.90;;;;;;5099213;28;20036;-69
2023/07/13 08:20:58;;;;;;;5.15;2.20;;;20.90;99.90;;;;;;5102581;27;20038;-70
2023/07/13 08:23:24;;;;;;;10.98;2.58;;;21.00;99.90;;;;;;5091302;28;20030;-71
2023/07/13 08:25:58;;;;;;;4.85;2.20;;;21.10;99.90;;;;;;5095666;28;20049;-72
2023/07/13 08:28:24;;;;;;;5.68;2.03;;;21.30;99.90;;;;;;5103573;28;20100;-70
2023/07/13 08:30:50;;;;;;;5.82;1.60;;;21.50;99.90;;;;;;5106316;28;20031;-71
2023/07/13 08:33:20;;;;;;;10.05;2.38;;;21.90;96.10;;;;;;5106694;28;20023;-69
2023/07/13 08:35:50;;;;;;;8.65;2.47;;;22.00;99.10;;;;;;5099807;28;20129;-72
2023/07/13 08:38:17;;;;;;;6.88;2.40;;;21.70;99.00;;;;;;5107010;28;20031;-65
2023/07/13 08:40:44;;;;;;;12.57;2.38;;;21.80;99.80;;;;;;5106762;28;20139;-71
2023/07/13 08:43:20;;;;;;;6.72;2.42;;;22.10;99.40;;;;;;5092857;28;20110;-71
2023/07/13 08:45:50;;;;;;;6.18;2.38;;;22.40;99.90;;;;;;5106450;28;20042;-71
2023/07/13 08:48:16;;;;;;;3.58;2.15;;;22.60;98.60;;;;;;5107088;28;20058;-70
2023/07/13 08:50:48;;;;;;;6.53;1.80;;;22.40;97.80;;;;;;5091562;28;20024;-71
2023/07/13 08:53:16;;;;;;;7.55;1.80;;;22.30;93.90;;;;;;5104510;28;20080;-69
2023/07/13 08:55:42;;;;;;;4.40;1.60;;;22.20;92.40;;;;;;5095364;28;20024;-71
2023/07/13 08:58:35;;;;;;;6.15;1.52;;;22.30;91.90;;;;;;5097946;28;20788;-71
2023/07/13 09:01:15;;;;;;;7.85;1.85;;;22.40;89.10;;;;;;5093705;28;20035;-72
2023/07/13 09:03:58;;;;;;;5.13;1.30;;;22.70;91.30;;;;;;5106028;28;20020;-70
2023/07/13 09:06:31;;;;;;;3.35;1.48;;;23.00;89.00;;;;;;5104268;28;20078;-68
2023/07/13 09:09:20;;;;;;;4.50;1.50;;;23.00;92.10;;;;;;5101977;28;20055;-71
2023/07/13 09:11:49;;;;;;;4.15;1.42;;;22.90;90.60;;;;;;5105125;28;20566;-71
2023/07/13 09:14:34;;;;;;;6.10;1.55;;;23.00;90.40;;;;;;5088261;28;20492;-69
2023/07/13 09:17:03;;;;;;;5.78;1.30;;;23.30;90.50;;;;;;5103664;28;20054;-70
2023/07/13 09:19:33;;;;;;;5.70;1.47;;;23.20;90.40;;;;;;5102359;28;20384;-73
2023/07/13 09:22:01;;;;;;;3.90;1.70;;;23.20;90.30;;;;;;5103351;28;20311;-68
2023/07/13 09:24:50;;;;;;;4.45;1.60;;;23.30;90.60;;;;;;5098427;28;20042;-72
2023/07/13 09:27:21;;;;;;;5.65;1.85;;;23.70;90.50;;;;;;5098968;28;20043;-71
2023/07/13 09:30:02;;;;;;;6.18;1.65;;;23.80;85.90;;;;;;5092501;28;20540;-69
2023/07/13 09:32:29;;;;;;;3.28;1.73;;;23.50;85.20;;;;;;5106097;28;20102;-70
2023/07/13 09:34:55;;;;;;;3.17;1.50;;;23.40;87.20;;;;;;5107073;28;20028;-70
2023/07/13 09:37:28;;;;;;;2.60;1.35;;;23.70;87.70;;;;;;5104793;28;20031;-68
2023/07/13 09:39:57;;;;;;;5.40;1.95;;;24.10;90.40;;;;;;5093747;28;20073;-70
2023/07/13 09:42:28;;;;;;;3.37;1.63;;;24.60;89.70;;;;;;5106331;28;20035;-72
2023/07/13 09:44:56;;;;;;;9.27;1.52;;;24.80;81.30;;;;;;5107273;28;20305;-69
2023/07/13 09:47:29;;;;;;;4.80;1.58;;;24.50;83.00;;;;;;5108663;28;20051;-69
2023/07/13 09:49:59;;;;;;;4.00;1.40;;;24.50;85.90;;;;;;5101774;28;20581;-68
2023/07/13 09:52:27;;;;;;;5.97;1.65;;;24.50;83.20;;;;;;5109193;28;20027;-70
2023/07/13 09:54:58;;;;;;;2.72;1.23;;;24.20;80.50;;;;;;5094376;28;20036;-69
2023/07/13 09:57:26;;;;;;;3.50;1.70;;;24.00;82.80;;;;;;5098016;28;20039;-69
2023/07/13 09:59:56;;;;;;;6.95;1.55;;;24.10;80.60;;;;;;5100948;28;20028;-68
2023/07/13 10:02:24;;;;;;;5.70;2.08;;;24.40;80.10;;;;;;5100706;28;20365;-68
2023/07/13 10:04:58;;;;;;;6.35;1.80;;;24.60;78.40;;;;;;5093157;28;20036;-70
2023/07/13 10:07:24;;;;;;;5.55;1.30;;;24.40;79.80;;;;;;5099810;28;20019;-72
2023/07/13 10:09:54;;;;;;;9.23;1.70;;;24.30;78.70;;;;;;5099222;28;20028;-70
2023/07/13 10:12:24;;;;;;;5.20;1.88;;;24.00;75.30;;;;;;5102540;28;20083;-70
2023/07/13 10:14:56;;;;;;;10.53;1.87;;;24.00;76.30;;;;;;5111403;28;20388;-74
2023/07/13 10:17:31;;;;;;;5.38;1.70;;;23.80;75.70;;;;;;5102139;28;20119;-70
2023/07/13 10:20:12;;;;;;;3.83;1.83;;;23.30;76.40;;;;;;5106507;28;20103;-71
2023/07/13 10:22:55;;;;;;;6.40;1.80;;;23.60;78.40;;;;;;5106062;28;20028;-72
2023/07/13 10:25:25;;;;;;;8.18;1.63;;;23.80;76.70;;;;;;5082886;28;20038;-70
2023/07/13 10:27:54;;;;;;;5.80;1.52;;;24.10;74.10;;;;;;5098473;28;20024;-71
2023/07/13 10:30:25;;;;;;;3.00;1.33;;;23.80;75.00;;;;;;5101077;28;20114;-70
2023/07/13 10:32:52;;;;;;;4.88;1.40;;;23.80;78.60;;;;;;5097625;28;20070;-70
2023/07/13 10:35:22;;;;;;;7.78;1.70;;;24.00;73.80;;;;;;5094169;28;20032;-71
2023/07/13 10:38:07;;;;;;;11.50;2.13;;;24.00;72.00;;;;;;5103834;28;20110;-70
2023/07/13 10:40:42;;;;;;;6.55;1.75;;;24.00;76.30;;;;;;5097457;28;20689;-72
2023/07/13 10:43:31;;;;;;;3.10;1.60;;;24.40;74.30;;;;;;5107506;28;20031;-70
2023/07/13 10:45:59;;;;;;;9.02;1.65;;;24.90;73.70;;;;;;5110582;28;20479;-70
2023/07/13 10:48:25;;;;;;;9.00;1.60;;;24.80;75.60;;;;;;5104814;27;20104;-69
2023/07/13 10:50:54;;;;;;;4.22;1.67;;;24.60;70.20;;;;;;5093760;28;20507;-71
2023/07/13 10:53:34;;;;;;;3.95;1.55;;;24.50;73.80;;;;;;5092340;28;20044;-74
2023/07/13 10:56:00;;;;;;;;;;;24.60;70.30;;;;;;5102682;28;20106;-70
2023/07/13 10:58:34;;;;;;;7.50;2.00;;;25.00;68.80;;;;;;5107319;28;20002;-70
2023/07/13 11:01:06;;;;;;;4.53;1.70;;;25.50;70.10;;;;;;5093753;28;20050;-70
2023/07/13 11:03:36;;;;;;;2.83;1.52;;;24.80;73.10;;;;;;5104051;28;20076;-69
2023/07/13 11:06:17;;;;;;;2.63;1.20;;;24.40;69.00;;;;;;5108626;28;20024;-72
2023/07/13 11:08:48;;;;;;;6.47;1.40;;;24.00;71.70;;;;;;5097164;28;20124;-70
2023/07/13 11:11:29;;;;;;;3.35;1.60;;;24.20;73.00;;;;;;5099311;28;20055;-69
2023/07/13 11:13:58;;;;;;;2.38;1.40;;;24.30;74.90;;;;;;5107743;28;20031;-71
2023/07/13 11:16:23;;;;;;;3.80;1.63;;;24.60;75.70;;;;;;5107975;28;20661;-68
2023/07/13 11:19:14;;;;;;;3.05;1.80;;;25.20;72.10;;;;;;5072511;28;20162;-70
2023/07/13 11:22:05;;;;;;;3.50;1.40;;;25.40;66.40;;;;;;5104278;28;20027;-72
2023/07/13 11:24:50;;;;;;;7.32;1.70;;;25.20;69.90;;;;;;5108064;28;20537;-72
2023/07/13 11:27:42;;;;;;;11.15;1.83;;;25.30;64.00;;;;;;5100862;28;20043;-72
2023/07/13 11:30:14;;;;;;;9.80;2.03;;;25.10;65.60;;;;;;5092788;28;20044;-77
2023/07/13 11:32:40;;;;;;;3.42;1.38;;;25.70;67.50;;;;;;5102020;28;20069;-71
2023/07/13 11:35:14;;;;;;;5.30;1.50;;;24.80;65.80;;;;;;5104621;28;20468;-71
2023/07/13 11:37:40;;;;;;;7.68;1.50;;;24.50;67.50;;;;;;5101368;28;20019;-70
2023/07/13 11:40:14;;;;;;;4.15;1.50;;;24.20;64.40;;;;;;5106341;28;20035;-70
2023/07/13 11:42:39;;;;;;;5.07;1.92;;;24.20;68.50;;;;;;5100194;28;20024;-71
2023/07/13 11:45:22;;;;;;;6.97;1.33;;;24.20;68.20;;;;;;5098857;28;20031;-69
2023/07/13 11:47:49;;;;;;;4.28;1.60;;;24.60;65.00;;;;;;5098480;28;20048;-67
2023/07/13 11:50:23;;;;;;;3.97;1.67;;;25.10;69.40;;;;;;5105341;28;20055;-68
2023/07/13 11:52:51;;;;;;;9.70;2.00;;;25.60;69.20;;;;;;5105727;28;20034;-68
2023/07/13 11:55:19;;;;;;;3.90;1.77;;;25.70;66.80;;;;;;5096059;28;20115;-70
2023/07/13 11:57:50;;;;;;;5.47;1.48;;;25.80;64.50;;;;;;5106533;28;20032;-69
2023/07/13 12:00:21;;;;;;;5.90;1.85;;;25.30;64.00;;;;;;5094782;28;20023;-69
2023/07/13 12:02:50;;;;;;;4.50;1.38;;;24.90;65.40;;;;;;5099185;28;20219;-72
2023/07/13 12:05:18;;;;;;;4.88;1.80;;;24.90;66.70;;;;;;5101395;28;20438;-74
2023/07/13 12:07:44;;;;;;;3.72;1.85;;;25.00;67.10;;;;;;5096467;28;20042;-70
2023/07/13 12:10:21;;;;;;;5.00;1.80;;;25.30;67.40;;;;;;5096018;28;20050;-73
2023/07/13 12:13:00;;;;;;;5.82;1.63;;;25.50;70.60;;;;;;5096086;28;20102;-74
2023/07/13 12:15:46;;;;;;;2.83;1.60;;;26.10;67.40;;;;;;5095690;27;20471;-68
2023/07/13 12:18:26;;;;;;;3.55;1.92;;;26.40;64.30;;;;;;5097012;27;20071;-71
2023/07/13 12:20:55;;;;;;;4.60;1.87;;;26.10;66.40;;;;;;5108069;28;20165;-72
2023/07/13 12:23:34;;;;;;;5.28;2.05;;;25.90;66.00;;;;;;5104859;28;20024;-67
2023/07/13 12:26:04;;;;;;;7.50;1.80;;;26.10;64.30;;;;;;5096927;28;20359;-78
2023/07/13 12:28:36;;;;;;;4.97;1.85;;;26.40;66.00;;;;;;5099423;28;20422;-69
2023/07/13 12:31:06;;;;;;;4.95;1.80;;;26.20;64.70;;;;;;5097349;28;20121;-75
2023/07/13 12:33:32;;;;;;;5.30;1.60;;;26.30;64.10;;;;;;5099884;28;20028;-70
2023/07/13 12:36:02;;;;;;;4.65;1.75;;;25.90;67.80;;;;;;5103174;28;20038;-71
2023/07/13 12:38:29;;;;;;;11.18;1.67;;;25.60;66.30;;;;;;5107366;28;20039;-68
2023/07/13 12:40:55;;;;;;;3.72;1.83;;;25.60;66.10;;;;;;5107450;28;20031;-71
2023/07/13 12:43:23;;;;;;;3.97;1.60;;;26.00;69.00;;;;;;5096622;28;20043;-73
2023/07/13 12:46:04;;;;;;;6.03;2.10;;;26.60;70.80;;;;;;5100737;28;20161;-72
2023/07/13 12:48:38;;;;;;;4.13;1.80;;;26.50;65.80;;;;;;5103241;28;20415;-67
2023/07/13 12:51:04;;;;;;;8.05;1.80;;;26.50;65.10;;;;;;5106122;28;20020;-71
2023/07/13 12:53:33;;;;;;;13.85;1.92;;;26.60;68.00;;;;;;5103244;28;20035;-68